createdAt,value
2023-08-07T00:00:48.477Z,100.00
2023-08-07T00:03:20.115Z,100.00
2023-08-07T00:05:48.353Z,100.00
2023-08-07T00:08:16.805Z,100.00
2023-08-07T00:10:46.347Z,100.00
2023-08-07T00:13:14.790Z,100.00
2023-08-07T00:15:43.392Z,100.00
2023-08-07T00:18:11.892Z,100.00
2023-08-07T00:20:39.940Z,100.00
2023-08-07T00:23:07.956Z,100.00
2023-08-07T00:25:36.075Z,100.00
2023-08-07T00:28:05.754Z,100.00
2023-08-07T00:30:34.064Z,100.00
2023-08-07T00:33:02.136Z,100.00
2023-08-07T00:35:30.506Z,100.00
2023-08-07T00:37:58.930Z,100.00
2023-08-07T00:40:27.061Z,100.00
2023-08-07T00:42:57.649Z,100.00
2023-08-07T00:45:28.407Z,100.00
2023-08-07T00:47:56.785Z,100.00
2023-08-07T00:50:28.455Z,100.00
2023-08-07T00:53:03.367Z,100.00
2023-08-07T00:55:31.779Z,100.00
2023-08-07T00:58:01.200Z,100.00
2023-08-07T01:00:31.822Z,100.00
2023-08-07T01:03:00.232Z,100.00
2023-08-07T01:05:28.760Z,100.00
2023-08-07T01:07:57.456Z,100.00
2023-08-07T01:10:37.382Z,100.00
2023-08-07T01:13:12.988Z,100.00
2023-08-07T01:15:42.495Z,100.00
2023-08-07T01:18:11.306Z,100.00
2023-08-07T01:20:39.375Z,100.00
2023-08-07T01:23:10.017Z,100.00
2023-08-07T01:25:39.580Z,100.00
2023-08-07T01:28:17.808Z,100.00
2023-08-07T01:30:51.473Z,100.00
2023-08-07T01:33:27.546Z,100.00
2023-08-07T01:35:59.489Z,100.00
2023-08-07T01:38:30.924Z,100.00
2023-08-07T01:40:59.839Z,100.00
2023-08-07T01:43:29.122Z,100.00
2023-08-07T01:45:57.592Z,100.00
2023-08-07T01:48:27.125Z,100.00
2023-08-07T01:50:56.164Z,100.00
2023-08-07T01:53:24.248Z,100.00
2023-08-07T01:55:53.884Z,100.00
2023-08-07T01:58:22.267Z,100.00
2023-08-07T02:00:50.361Z,100.00
2023-08-07T02:03:18.752Z,100.00
2023-08-07T02:05:47.690Z,100.00
2023-08-07T02:08:17.340Z,100.00
2023-08-07T02:10:46.392Z,100.00
2023-08-07T02:13:15.839Z,100.00
2023-08-07T02:15:44.190Z,100.00
2023-08-07T02:18:12.573Z,100.00
2023-08-07T02:20:40.956Z,100.00
2023-08-07T02:23:09.843Z,100.00
2023-08-07T02:25:38.629Z,100.00
2023-08-07T02:28:07.362Z,100.00
2023-08-07T02:30:37.563Z,100.00
2023-08-07T02:33:05.893Z,100.00
2023-08-07T02:35:36.829Z,100.00
2023-08-07T02:38:04.986Z,100.00
2023-08-07T02:40:33.444Z,100.00
2023-08-07T02:43:01.786Z,100.00
2023-08-07T02:45:30.155Z,100.00
2023-08-07T02:48:00.529Z,100.00
2023-08-07T02:50:30.997Z,100.00
2023-08-07T02:52:59.432Z,100.00
2023-08-07T02:55:27.483Z,100.00
2023-08-07T02:57:55.715Z,100.00
2023-08-07T03:00:24.430Z,100.00
2023-08-07T03:02:52.859Z,100.00
2023-08-07T03:05:22.692Z,100.00
2023-08-07T03:07:50.912Z,100.00
2023-08-07T03:10:19.486Z,100.00
2023-08-07T03:12:47.773Z,100.00
2023-08-07T03:15:16.091Z,100.00
2023-08-07T03:17:44.610Z,100.00
2023-08-07T03:20:14.451Z,100.00
2023-08-07T03:22:44.167Z,100.00
2023-08-07T03:25:12.564Z,100.00
2023-08-07T03:27:41.290Z,100.00
2023-08-07T03:30:10.166Z,100.00
2023-08-07T03:32:38.156Z,100.00
2023-08-07T03:35:07.240Z,100.00
2023-08-07T03:37:35.599Z,100.00
2023-08-07T03:40:06.128Z,100.00
2023-08-07T03:42:34.509Z,100.00
2023-08-07T03:45:02.681Z,100.00
2023-08-07T03:47:31.121Z,100.00
2023-08-07T03:49:59.481Z,100.00
2023-08-07T03:52:28.473Z,100.00
2023-08-07T03:54:57.226Z,100.00
2023-08-07T03:57:27.676Z,100.00
2023-08-07T03:59:56.488Z,100.00
2023-08-07T04:02:24.846Z,100.00
2023-08-07T04:04:53.183Z,100.00
2023-08-07T04:07:21.382Z,100.00
2023-08-07T04:09:49.551Z,100.00
2023-08-07T04:12:18.587Z,100.00
2023-08-07T04:14:48.393Z,100.00
2023-08-07T04:17:16.652Z,100.00
2023-08-07T04:19:45.718Z,100.00
2023-08-07T04:22:13.815Z,100.00
2023-08-07T04:24:42.347Z,100.00
2023-08-07T04:27:10.806Z,100.00
2023-08-07T04:29:38.897Z,100.00
2023-08-07T04:32:10.789Z,100.00
2023-08-07T04:34:40.066Z,100.00
2023-08-07T04:37:08.592Z,100.00
2023-08-07T04:39:37.440Z,100.00
2023-08-07T04:42:06.333Z,100.00
2023-08-07T04:44:34.524Z,100.00
2023-08-07T04:47:05.518Z,100.00
2023-08-07T04:49:35.078Z,100.00
2023-08-07T04:52:16.699Z,100.00
2023-08-07T04:54:51.723Z,100.00
2023-08-07T04:57:20.248Z,100.00
2023-08-07T04:59:48.200Z,100.00
2023-08-07T05:02:16.602Z,100.00
2023-08-07T05:04:46.656Z,100.00
2023-08-07T05:07:14.867Z,100.00
2023-08-07T05:09:44.145Z,100.00
2023-08-07T05:12:12.279Z,100.00
2023-08-07T05:14:40.201Z,100.00
2023-08-07T05:17:08.651Z,100.00
2023-08-07T05:19:36.840Z,100.00
2023-08-07T05:22:06.968Z,100.00
2023-08-07T05:24:40.514Z,100.00
2023-08-07T05:27:10.569Z,100.00
2023-08-07T05:29:47.624Z,100.00
2023-08-07T05:32:17.126Z,100.00
2023-08-07T05:34:46.046Z,100.00
2023-08-07T05:37:15.766Z,100.00
2023-08-07T05:39:44.052Z,100.00
2023-08-07T05:42:13.735Z,100.00
2023-08-07T05:44:41.879Z,100.00
2023-08-07T05:47:10.304Z,100.00
2023-08-07T05:49:39.051Z,100.00
2023-08-07T05:52:08.899Z,100.00
2023-08-07T05:54:39.378Z,100.00
2023-08-07T05:57:08.591Z,100.00
2023-08-07T05:59:37.371Z,100.00
2023-08-07T06:02:06.311Z,100.00
2023-08-07T06:04:34.919Z,100.00
2023-08-07T06:07:03.153Z,100.00
2023-08-07T06:09:31.498Z,100.00
2023-08-07T06:12:01.527Z,100.00
2023-08-07T06:14:29.821Z,99.65
2023-08-07T06:16:59.307Z,98.23
2023-08-07T06:19:32.536Z,96.18
2023-08-07T06:22:01.844Z,91.87
2023-08-07T06:24:30.217Z,97.29
2023-08-07T06:27:00.317Z,99.62
2023-08-07T06:29:30.087Z,100.00
2023-08-07T06:31:58.476Z,100.00
2023-08-07T06:34:27.141Z,90.47
2023-08-07T06:36:55.500Z,85.27
2023-08-07T06:39:23.643Z,81.01
2023-08-07T06:41:51.771Z,74.18
2023-08-07T06:44:21.828Z,64.02
2023-08-07T06:46:50.669Z,64.58
2023-08-07T06:49:18.651Z,61.16
2023-08-07T06:51:46.933Z,60.13
2023-08-07T06:54:15.029Z,54.33
2023-08-07T06:56:44.513Z,52.94
2023-08-07T06:59:14.180Z,51.75
2023-08-07T07:01:43.875Z,53.26
2023-08-07T07:04:11.958Z,52.77
2023-08-07T07:06:40.362Z,52.50
2023-08-07T07:09:09.042Z,50.42
2023-08-07T07:11:37.185Z,50.31
2023-08-07T07:14:05.427Z,50.27
2023-08-07T07:16:34.264Z,50.69
2023-08-07T07:19:07.346Z,51.04
2023-08-07T07:21:35.888Z,48.18
2023-08-07T07:24:04.280Z,46.70
2023-08-07T07:26:32.380Z,49.25
2023-08-07T07:29:00.312Z,51.16
2023-08-07T07:31:28.887Z,52.74
2023-08-07T07:33:57.460Z,53.61
2023-08-07T07:36:27.227Z,53.54
2023-08-07T07:38:55.800Z,55.11
2023-08-07T07:41:25.423Z,53.43
2023-08-07T07:43:57.071Z,51.61
2023-08-07T07:46:26.332Z,51.60
2023-08-07T07:48:54.658Z,51.29
2023-08-07T07:51:22.614Z,49.55
2023-08-07T07:54:04.506Z,52.28
2023-08-07T07:56:40.261Z,52.41
2023-08-07T07:59:09.526Z,50.81
2023-08-07T08:01:38.132Z,51.07
2023-08-07T08:04:06.575Z,49.02
2023-08-07T08:06:35.083Z,49.78
2023-08-07T08:09:06.127Z,47.40
2023-08-07T08:11:34.708Z,50.01
2023-08-07T08:14:03.092Z,50.46
2023-08-07T08:16:31.523Z,52.21
2023-08-07T08:18:59.975Z,53.13
2023-08-07T08:21:28.150Z,53.48
2023-08-07T08:23:56.297Z,51.14
2023-08-07T08:26:26.210Z,52.04
2023-08-07T08:28:54.289Z,51.46
2023-08-07T08:31:25.420Z,53.42
2023-08-07T08:33:53.954Z,50.50
2023-08-07T08:36:21.942Z,51.17
2023-08-07T08:38:50.394Z,51.14
2023-08-07T08:41:19.011Z,51.23
2023-08-07T08:43:50.922Z,50.85
2023-08-07T08:46:22.835Z,51.09
2023-08-07T08:48:54.314Z,48.87
2023-08-07T08:51:23.845Z,48.24
2023-08-07T08:53:55.272Z,48.38
2023-08-07T08:56:24.428Z,47.34
2023-08-07T08:58:54.435Z,46.76
2023-08-07T09:01:26.192Z,47.20
2023-08-07T09:03:56.298Z,47.63
2023-08-07T09:06:26.314Z,46.25
2023-08-07T09:08:55.898Z,47.03
2023-08-07T09:11:24.804Z,46.93
2023-08-07T09:13:58.985Z,48.25
2023-08-07T09:16:29.058Z,48.63
2023-08-07T09:18:57.902Z,49.53
2023-08-07T09:21:26.343Z,49.03
2023-08-07T09:23:54.464Z,50.00
2023-08-07T09:26:25.800Z,48.42
2023-08-07T09:28:55.732Z,48.88
2023-08-07T09:31:27.647Z,49.70
2023-08-07T09:33:57.710Z,49.18
2023-08-07T09:36:26.304Z,48.94
2023-08-07T09:38:54.606Z,47.49
2023-08-07T09:41:22.816Z,47.34
2023-08-07T09:43:51.506Z,48.43
2023-08-07T09:46:24.029Z,48.52
2023-08-07T09:48:52.382Z,48.22
2023-08-07T09:51:20.434Z,48.54
2023-08-07T09:53:49.924Z,47.88
2023-08-07T09:56:19.095Z,45.96
2023-08-07T09:58:51.505Z,44.65
2023-08-07T10:01:21.598Z,45.90
2023-08-07T10:03:50.017Z,46.24
2023-08-07T10:06:18.343Z,46.71
2023-08-07T10:08:47.551Z,46.53
2023-08-07T10:11:19.440Z,46.36
2023-08-07T10:13:48.053Z,46.91
2023-08-07T10:16:18.020Z,45.69
2023-08-07T10:18:47.585Z,44.32
2023-08-07T10:21:16.050Z,44.08
2023-08-07T10:23:45.839Z,42.78
2023-08-07T10:26:15.261Z,42.88
2023-08-07T10:28:45.025Z,43.36
2023-08-07T10:31:16.094Z,43.29
2023-08-07T10:33:44.913Z,42.79
2023-08-07T10:36:14.593Z,41.56
2023-08-07T10:38:44.036Z,42.20
2023-08-07T10:41:14.776Z,43.66
2023-08-07T10:43:44.913Z,41.90
2023-08-07T10:46:16.263Z,42.69
2023-08-07T10:48:47.883Z,45.00
2023-08-07T10:51:21.966Z,45.37
2023-08-07T10:53:53.034Z,46.45
2023-08-07T10:56:32.781Z,45.49
2023-08-07T10:59:01.127Z,44.29
2023-08-07T11:01:42.605Z,43.82
2023-08-07T11:04:12.467Z,42.22
2023-08-07T11:06:44.296Z,41.19
2023-08-07T11:09:12.999Z,40.94
2023-08-07T11:11:42.739Z,40.64
2023-08-07T11:14:11.993Z,41.62
2023-08-07T11:16:40.203Z,42.17
2023-08-07T11:19:08.863Z,41.99
2023-08-07T11:21:37.762Z,43.12
2023-08-07T11:24:07.646Z,43.76
2023-08-07T11:26:36.313Z,42.10
2023-08-07T11:29:04.518Z,41.78
2023-08-07T11:31:32.613Z,41.12
2023-08-07T11:34:00.848Z,41.67
2023-08-07T11:36:29.014Z,42.16
2023-08-07T11:38:57.311Z,42.12
2023-08-07T11:41:27.073Z,42.60
2023-08-07T11:43:55.121Z,42.29
2023-08-07T11:46:23.851Z,42.59
2023-08-07T11:48:56.059Z,42.90
2023-08-07T11:51:24.596Z,42.95
2023-08-07T11:53:57.682Z,42.78
2023-08-07T11:56:27.564Z,43.06
2023-08-07T11:58:55.919Z,42.48
2023-08-07T12:01:25.833Z,42.83
2023-08-07T12:03:56.683Z,43.46
2023-08-07T12:06:25.741Z,43.36
2023-08-07T12:08:57.963Z,43.24
2023-08-07T12:11:27.743Z,43.64
2023-08-07T12:13:56.359Z,43.88
2023-08-07T12:16:25.196Z,43.49
2023-08-07T12:18:54.465Z,43.60
2023-08-07T12:21:26.229Z,42.77
2023-08-07T12:23:58.348Z,42.90
2023-08-07T12:26:27.951Z,42.49
2023-08-07T12:28:56.138Z,42.85
2023-08-07T12:31:24.504Z,41.95
2023-08-07T12:33:53.493Z,42.51
2023-08-07T12:36:22.520Z,42.78
2023-08-07T12:38:50.759Z,42.01
2023-08-07T12:43:51.256Z,42.73
2023-08-07T12:48:50.709Z,42.93
2023-08-07T12:51:19.766Z,42.89
2023-08-07T12:53:48.930Z,41.38
2023-08-07T12:56:17.065Z,42.38
2023-08-07T12:58:48.334Z,43.24
2023-08-07T13:01:18.211Z,44.05
2023-08-07T13:03:46.428Z,43.46
2023-08-07T13:06:15.276Z,42.13
2023-08-07T13:08:44.347Z,41.72
2023-08-07T13:11:12.893Z,42.18
2023-08-07T13:13:43.016Z,43.22
2023-08-07T13:16:11.095Z,43.91
2023-08-07T13:18:40.923Z,44.92
2023-08-07T13:21:10.567Z,44.73
2023-08-07T13:23:39.191Z,45.16
2023-08-07T13:26:07.556Z,45.38
2023-08-07T13:28:36.500Z,44.32
2023-08-07T13:31:04.562Z,45.09
2023-08-07T13:33:32.647Z,46.60
2023-08-07T13:36:02.768Z,47.82
2023-08-07T13:38:31.273Z,49.36
2023-08-07T13:41:00.486Z,48.79
2023-08-07T13:43:28.658Z,49.45
2023-08-07T13:45:57.358Z,49.49
2023-08-07T13:48:29.287Z,51.23
2023-08-07T13:50:57.687Z,49.94
2023-08-07T13:53:30.347Z,51.44
2023-08-07T13:55:58.539Z,50.36
2023-08-07T13:58:26.679Z,50.67
2023-08-07T14:00:56.319Z,50.81
2023-08-07T14:03:30.539Z,49.93
2023-08-07T14:05:58.867Z,49.73
2023-08-07T14:08:29.127Z,49.62
2023-08-07T14:10:57.040Z,50.02
2023-08-07T14:13:26.055Z,51.11
2023-08-07T14:15:54.514Z,52.87
2023-08-07T14:18:22.509Z,53.07
2023-08-07T14:21:01.975Z,53.08
2023-08-07T14:26:29.466Z,55.20
2023-08-07T14:28:57.884Z,56.46
2023-08-07T14:31:26.251Z,56.61
2023-08-07T14:33:56.250Z,56.76
2023-08-07T14:36:24.302Z,56.54
2023-08-07T14:38:54.501Z,55.49
2023-08-07T14:41:22.957Z,55.47
2023-08-07T14:43:51.135Z,54.75
2023-08-07T14:46:20.476Z,54.65
2023-08-07T14:48:49.615Z,54.17
2023-08-07T14:51:17.929Z,53.51
2023-08-07T14:53:46.269Z,53.49
2023-08-07T14:56:16.107Z,54.28
2023-08-07T14:58:46.667Z,55.19
2023-08-07T15:01:14.913Z,56.80
2023-08-07T15:03:43.421Z,56.84
2023-08-07T15:06:11.463Z,56.76
2023-08-07T15:08:40.084Z,56.04
2023-08-07T15:11:08.655Z,56.43
2023-08-07T15:13:38.329Z,57.09
2023-08-07T15:16:07.085Z,56.27
2023-08-07T15:18:39.139Z,56.91
2023-08-07T15:21:12.008Z,55.75
2023-08-07T15:23:40.129Z,55.91
2023-08-07T15:26:08.438Z,56.90
2023-08-07T15:28:37.959Z,57.03
2023-08-07T15:31:06.195Z,57.68
2023-08-07T15:33:35.985Z,57.98
2023-08-07T15:36:04.021Z,58.63
2023-08-07T15:38:32.315Z,60.05
2023-08-07T15:41:00.451Z,61.39
2023-08-07T15:43:28.628Z,61.59
2023-08-07T15:45:58.578Z,61.65
2023-08-07T15:48:27.545Z,62.66
2023-08-07T15:50:56.065Z,62.79
2023-08-07T15:53:25.024Z,62.93
2023-08-07T15:55:53.272Z,63.39
2023-08-07T15:58:23.657Z,64.33
2023-08-07T16:00:52.259Z,67.25
2023-08-07T16:03:23.343Z,69.33
2023-08-07T16:05:59.749Z,72.39
2023-08-07T16:08:27.910Z,72.01
2023-08-07T16:10:56.188Z,71.82
2023-08-07T16:13:24.942Z,71.20
2023-08-07T16:15:53.429Z,72.53
2023-08-07T16:18:23.438Z,72.56
2023-08-07T16:20:52.302Z,76.20
2023-08-07T16:23:20.395Z,79.21
2023-08-07T16:25:48.672Z,80.05
2023-08-07T16:28:16.830Z,82.43
2023-08-07T16:30:45.318Z,85.66
2023-08-07T16:33:13.831Z,89.03
2023-08-07T16:35:44.025Z,91.66
2023-08-07T16:38:13.094Z,92.41
2023-08-07T16:40:41.263Z,92.80
2023-08-07T16:43:10.850Z,93.25
2023-08-07T16:45:39.192Z,94.12
2023-08-07T16:48:07.825Z,96.35
2023-08-07T16:50:36.397Z,97.29
2023-08-07T16:53:07.866Z,97.73
2023-08-07T16:55:36.908Z,99.33
2023-08-07T16:58:05.417Z,100.00
2023-08-07T17:00:34.283Z,100.00
2023-08-07T17:03:04.950Z,100.00
2023-08-07T17:05:33.062Z,100.00
2023-08-07T17:08:01.250Z,100.00
2023-08-07T17:10:30.706Z,100.00
2023-08-07T17:12:59.288Z,100.00
2023-08-07T17:15:28.148Z,100.00
2023-08-07T17:17:56.534Z,100.00
2023-08-07T17:20:24.714Z,100.00
2023-08-07T17:22:52.980Z,100.00
2023-08-07T17:25:21.144Z,100.00
2023-08-07T17:27:50.965Z,100.00
2023-08-07T17:30:19.200Z,100.00
2023-08-07T17:32:47.615Z,100.00
2023-08-07T17:35:16.173Z,100.00
2023-08-07T17:37:44.790Z,100.00
2023-08-07T17:40:14.903Z,100.00
2023-08-07T17:42:43.155Z,100.00
2023-08-07T17:45:16.034Z,100.00
2023-08-07T17:47:47.834Z,100.00
2023-08-07T17:50:16.290Z,100.00
2023-08-07T17:52:44.530Z,100.00
2023-08-07T17:57:42.412Z,100.00
2023-08-07T18:00:14.834Z,100.00
2023-08-07T18:02:45.640Z,100.00
2023-08-07T18:05:14.227Z,100.00
2023-08-07T18:07:43.126Z,100.00
2023-08-07T18:10:13.303Z,100.00
2023-08-07T18:12:42.207Z,100.00
2023-08-07T18:15:10.798Z,100.00
2023-08-07T18:17:41.277Z,100.00
2023-08-07T18:20:11.217Z,100.00
2023-08-07T18:22:39.690Z,100.00
2023-08-07T18:25:09.302Z,100.00
2023-08-07T18:27:37.689Z,100.00
2023-08-07T18:30:06.186Z,100.00
2023-08-07T18:32:37.330Z,100.00
2023-08-07T18:35:08.332Z,100.00
2023-08-07T18:37:37.054Z,100.00
2023-08-07T18:40:06.010Z,100.00
2023-08-07T18:42:34.124Z,100.00
2023-08-07T18:45:02.930Z,100.00
2023-08-07T18:47:31.606Z,100.00
2023-08-07T18:49:59.905Z,100.00
2023-08-07T18:52:29.714Z,100.00
2023-08-07T18:54:57.963Z,100.00
2023-08-07T18:57:26.088Z,100.00
2023-08-07T18:59:54.691Z,100.00
2023-08-07T19:02:23.154Z,100.00
2023-08-07T19:04:51.349Z,100.00
2023-08-07T19:07:19.643Z,100.00
2023-08-07T19:09:49.047Z,100.00
2023-08-07T19:12:17.281Z,100.00
2023-08-07T19:14:45.585Z,100.00
2023-08-07T19:17:14.982Z,100.00
2023-08-07T19:19:43.177Z,100.00
2023-08-07T19:22:11.339Z,100.00
2023-08-07T19:24:39.333Z,100.00
2023-08-07T19:27:09.494Z,100.00
2023-08-07T19:29:37.698Z,100.00
2023-08-07T19:32:06.812Z,100.00
2023-08-07T19:34:35.860Z,100.00
2023-08-07T19:37:04.216Z,100.00
2023-08-07T19:39:32.927Z,100.00
2023-08-07T19:42:01.090Z,100.00
2023-08-07T19:44:30.818Z,100.00
2023-08-07T19:46:59.449Z,100.00
2023-08-07T19:49:28.173Z,100.00
2023-08-07T19:51:57.087Z,100.00
2023-08-07T19:54:25.515Z,100.00
2023-08-07T19:58:46.555Z,100.00
2023-08-07T20:01:14.721Z,100.00
2023-08-07T20:03:43.044Z,100.00
2023-08-07T20:06:11.145Z,100.00
2023-08-07T20:08:39.283Z,100.00
2023-08-07T20:12:35.991Z,100.00
2023-08-07T20:15:04.188Z,100.00
2023-08-07T20:17:32.449Z,100.00
2023-08-07T20:20:00.533Z,100.00
2023-08-07T20:22:30.886Z,100.00
2023-08-07T20:24:59.457Z,100.00
2023-08-07T20:27:27.539Z,100.00
2023-08-07T20:29:57.593Z,100.00
2023-08-07T20:32:25.917Z,100.00
2023-08-07T20:34:54.030Z,100.00
2023-08-07T20:37:24.796Z,100.00
2023-08-07T20:39:52.948Z,100.00
2023-08-07T20:42:21.283Z,100.00
2023-08-07T20:44:49.324Z,100.00
2023-08-07T20:47:19.168Z,100.00
2023-08-07T20:49:47.572Z,100.00
2023-08-07T20:52:15.990Z,100.00
2023-08-07T20:54:44.244Z,100.00
2023-08-07T20:57:12.881Z,100.00
2023-08-07T20:59:41.548Z,100.00
2023-08-07T21:02:11.678Z,100.00
2023-08-07T21:04:41.740Z,100.00
2023-08-07T21:07:10.247Z,100.00
2023-08-07T21:09:38.261Z,100.00
2023-08-07T21:12:07.386Z,100.00
2023-08-07T21:14:35.443Z,100.00
2023-08-07T21:17:03.697Z,100.00
2023-08-07T21:19:33.582Z,100.00
2023-08-07T21:22:03.408Z,100.00
2023-08-07T21:24:31.504Z,100.00
2023-08-07T21:27:01.070Z,100.00
2023-08-07T21:29:29.096Z,100.00
2023-08-07T21:31:57.721Z,100.00
2023-08-07T21:34:25.984Z,100.00
2023-08-07T21:36:54.438Z,100.00
2023-08-07T21:39:24.257Z,100.00
2023-08-07T21:41:52.636Z,100.00
2023-08-07T21:44:21.298Z,100.00
2023-08-07T21:46:51.763Z,100.00
2023-08-07T21:49:20.011Z,100.00
2023-08-07T21:51:50.153Z,100.00
2023-08-07T21:54:18.179Z,100.00
2023-08-07T21:56:50.572Z,100.00
2023-08-07T21:59:19.118Z,100.00
2023-08-07T22:01:47.556Z,100.00
2023-08-07T22:04:16.341Z,100.00
2023-08-07T22:06:44.677Z,100.00
2023-08-07T22:09:13.458Z,100.00
2023-08-07T22:11:41.467Z,100.00
2023-08-07T22:14:11.318Z,100.00
2023-08-07T22:16:39.760Z,100.00
2023-08-07T22:19:07.804Z,100.00
2023-08-07T22:21:35.865Z,100.00
2023-08-07T22:24:04.366Z,100.00
2023-08-07T22:26:32.426Z,100.00
2023-08-07T22:29:00.865Z,100.00
2023-08-07T22:31:30.894Z,100.00
2023-08-07T22:33:59.071Z,100.00
2023-08-07T22:36:27.590Z,100.00
2023-08-07T22:38:56.509Z,100.00
2023-08-07T22:41:24.656Z,100.00
2023-08-07T22:43:52.625Z,100.00
2023-08-07T22:46:20.748Z,100.00
2023-08-07T22:48:50.598Z,100.00
2023-08-07T22:51:20.028Z,100.00
2023-08-07T22:53:48.088Z,100.00
2023-08-07T22:56:16.745Z,100.00
2023-08-07T22:58:45.845Z,100.00
2023-08-07T23:01:14.381Z,100.00
2023-08-07T23:03:43.438Z,100.00
2023-08-07T23:06:13.131Z,100.00
2023-08-07T23:08:41.283Z,100.00
2023-08-07T23:11:09.572Z,100.00
2023-08-07T23:13:37.606Z,100.00
2023-08-07T23:16:05.973Z,100.00
2023-08-07T23:18:33.993Z,100.00
2023-08-07T23:21:02.205Z,100.00
2023-08-07T23:23:31.701Z,100.00
2023-08-07T23:25:59.713Z,100.00
2023-08-07T23:28:27.678Z,100.00
2023-08-07T23:30:56.080Z,100.00
2023-08-07T23:33:24.417Z,100.00
2023-08-07T23:35:52.301Z,100.00
2023-08-07T23:38:20.397Z,100.00
2023-08-07T23:40:49.927Z,100.00
2023-08-07T23:43:19.326Z,100.00
2023-08-07T23:45:47.333Z,100.00
2023-08-07T23:48:15.598Z,100.00
2023-08-07T23:50:43.934Z,100.00
2023-08-07T23:53:12.170Z,100.00
2023-08-07T23:55:40.149Z,100.00
2023-08-07T23:58:10.033Z,100.00
